sensor_id;sensor_type;location;lat;lon;timestamp;pressure;altitude;pressure_sealevel;temperature;humidity
17362;BME280;8798;51.938;4.348;2023-05-20T00:01:35;101692.00;;;15.84;55.65
17362;BME280;8798;51.938;4.348;2023-05-20T00:04:03;101700.31;;;15.83;55.75
17362;BME280;8798;51.938;4.348;2023-05-20T00:06:32;101682.16;;;15.75;56.02
17362;BME280;8798;51.938;4.348;2023-05-20T00:09:00;101681.63;;;15.72;55.88
17362;BME280;8798;51.938;4.348;2023-05-20T00:11:28;101677.50;;;15.67;56.00
17362;BME280;8798;51.938;4.348;2023-05-20T00:13:56;101669.91;;;15.63;56.00
17362;BME280;8798;51.938;4.348;2023-05-20T00:16:24;101657.00;;;15.57;56.24
17362;BME280;8798;51.938;4.348;2023-05-20T00:18:53;101668.00;;;15.55;56.00
17362;BME280;8798;51.938;4.348;2023-05-20T00:21:22;101674.44;;;15.54;56.20
17362;BME280;8798;51.938;4.348;2023-05-20T00:23:50;101691.72;;;15.53;56.30
17362;BME280;8798;51.938;4.348;2023-05-20T00:26:18;101694.56;;;15.52;56.33
17362;BME280;8798;51.938;4.348;2023-05-20T00:28:46;101708.13;;;15.52;56.43
17362;BME280;8798;51.938;4.348;2023-05-20T00:31:14;101712.84;;;15.49;56.55
17362;BME280;8798;51.938;4.348;2023-05-20T00:33:42;101717.56;;;15.47;56.59
17362;BME280;8798;51.938;4.348;2023-05-20T00:36:11;101719.75;;;15.44;56.55
17362;BME280;8798;51.938;4.348;2023-05-20T00:38:39;101720.94;;;15.41;56.34
17362;BME280;8798;51.938;4.348;2023-05-20T00:41:07;101718.56;;;15.38;56.68
17362;BME280;8798;51.938;4.348;2023-05-20T00:43:35;101720.56;;;15.36;56.71
17362;BME280;8798;51.938;4.348;2023-05-20T00:46:03;101724.28;;;15.35;56.82
17362;BME280;8798;51.938;4.348;2023-05-20T00:48:38;101733.56;;;15.33;56.92
17362;BME280;8798;51.938;4.348;2023-05-20T00:51:06;101720.69;;;15.26;57.15
17362;BME280;8798;51.938;4.348;2023-05-20T00:53:35;101698.81;;;15.20;56.65
17362;BME280;8798;51.938;4.348;2023-05-20T00:56:04;101703.03;;;15.14;57.12
17362;BME280;8798;51.938;4.348;2023-05-20T00:58:33;101704.88;;;15.14;57.14
17362;BME280;8798;51.938;4.348;2023-05-20T01:01:02;101720.25;;;15.13;57.08
17362;BME280;8798;51.938;4.348;2023-05-20T01:03:30;101717.72;;;15.12;57.25
17362;BME280;8798;51.938;4.348;2023-05-20T01:05:58;101711.94;;;15.07;57.23
17362;BME280;8798;51.938;4.348;2023-05-20T01:08:26;101715.66;;;15.05;57.29
17362;BME280;8798;51.938;4.348;2023-05-20T01:10:59;101725.81;;;15.03;57.26
17362;BME280;8798;51.938;4.348;2023-05-20T01:13:34;101739.34;;;15.03;57.33
17362;BME280;8798;51.938;4.348;2023-05-20T01:16:04;101743.88;;;15.03;57.14
17362;BME280;8798;51.938;4.348;2023-05-20T01:18:33;101746.06;;;14.99;57.60
17362;BME280;8798;51.938;4.348;2023-05-20T01:21:02;101733.16;;;14.93;57.51
17362;BME280;8798;51.938;4.348;2023-05-20T01:23:36;101709.44;;;14.87;57.59
17362;BME280;8798;51.938;4.348;2023-05-20T01:26:04;101712.63;;;14.82;57.57
17362;BME280;8798;51.938;4.348;2023-05-20T01:28:33;101705.69;;;14.80;57.58
17362;BME280;8798;51.938;4.348;2023-05-20T01:31:04;101708.00;;;14.75;57.79
17362;BME280;8798;51.938;4.348;2023-05-20T01:33:34;101708.16;;;14.73;57.66
17362;BME280;8798;51.938;4.348;2023-05-20T01:36:03;101716.44;;;14.72;57.87
17362;BME280;8798;51.938;4.348;2023-05-20T01:38:34;101728.25;;;14.71;57.84
17362;BME280;8798;51.938;4.348;2023-05-20T01:41:03;101725.88;;;14.68;57.94
17362;BME280;8798;51.938;4.348;2023-05-20T01:43:32;101724.31;;;14.65;57.96
17362;BME280;8798;51.938;4.348;2023-05-20T01:46:01;101732.59;;;14.63;58.18
17362;BME280;8798;51.938;4.348;2023-05-20T01:48:32;101749.00;;;14.62;58.17
17362;BME280;8798;51.938;4.348;2023-05-20T01:51:00;101743.72;;;14.60;58.21
17362;BME280;8798;51.938;4.348;2023-05-20T01:53:28;101736.94;;;14.56;58.43
17362;BME280;8798;51.938;4.348;2023-05-20T01:55:57;101745.22;;;14.55;58.33
17362;BME280;8798;51.938;4.348;2023-05-20T01:58:25;101741.06;;;14.51;58.41
17362;BME280;8798;51.938;4.348;2023-05-20T02:00:53;101754.59;;;14.51;58.22
17362;BME280;8798;51.938;4.348;2023-05-20T02:03:21;101750.34;;;14.48;58.31
17362;BME280;8798;51.938;4.348;2023-05-20T02:05:49;101766.56;;;14.48;58.63
17362;BME280;8798;51.938;4.348;2023-05-20T02:08:17;101771.97;;;14.48;58.49
17362;BME280;8798;51.938;4.348;2023-05-20T02:10:46;101791.75;;;14.49;58.99
17362;BME280;8798;51.938;4.348;2023-05-20T02:13:16;101798.03;;;14.49;58.61
17362;BME280;8798;51.938;4.348;2023-05-20T02:15:44;101808.13;;;14.47;58.76
17362;BME280;8798;51.938;4.348;2023-05-20T02:18:13;101803.03;;;14.44;58.76
17362;BME280;8798;51.938;4.348;2023-05-20T02:20:44;101797.06;;;14.40;58.99
17362;BME280;8798;51.938;4.348;2023-05-20T02:23:12;101815.00;;;14.41;58.91
17362;BME280;8798;51.938;4.348;2023-05-20T02:25:40;101827.66;;;14.41;58.92
17362;BME280;8798;51.938;4.348;2023-05-20T02:28:07;101833.94;;;14.41;59.02
17362;BME280;8798;51.938;4.348;2023-05-20T02:30:37;101828.97;;;14.37;59.20
17362;BME280;8798;51.938;4.348;2023-05-20T02:33:05;101827.44;;;14.34;59.20
17362;BME280;8798;51.938;4.348;2023-05-20T02:35:35;101843.47;;;14.36;59.20
17362;BME280;8798;51.938;4.348;2023-05-20T02:38:03;101843.66;;;14.34;59.40
17362;BME280;8798;51.938;4.348;2023-05-20T02:40:31;101834.28;;;14.29;59.54
17362;BME280;8798;51.938;4.348;2023-05-20T02:42:59;101827.63;;;14.23;59.58
17362;BME280;8798;51.938;4.348;2023-05-20T02:45:27;101832.19;;;14.23;59.49
17362;BME280;8798;51.938;4.348;2023-05-20T02:47:57;101850.94;;;14.24;59.74
17362;BME280;8798;51.938;4.348;2023-05-20T02:50:25;101872.28;;;14.27;59.58
17362;BME280;8798;51.938;4.348;2023-05-20T02:52:52;101882.94;;;14.29;59.60
17362;BME280;8798;51.938;4.348;2023-05-20T02:55:21;101888.34;;;14.29;59.46
17362;BME280;8798;51.938;4.348;2023-05-20T02:57:49;101902.56;;;14.31;59.49
17362;BME280;8798;51.938;4.348;2023-05-20T03:00:17;101918.63;;;14.32;59.93
17362;BME280;8798;51.938;4.348;2023-05-20T03:02:45;101933.00;;;14.33;59.77
17362;BME280;8798;51.938;4.348;2023-05-20T03:05:15;101932.16;;;14.32;59.99
17362;BME280;8798;51.938;4.348;2023-05-20T03:07:42;101942.13;;;14.32;60.02
17362;BME280;8798;51.938;4.348;2023-05-20T03:10:11;101968.84;;;14.35;59.96
17362;BME280;8798;51.938;4.348;2023-05-20T03:12:39;101978.50;;;14.37;60.01
17362;BME280;8798;51.938;4.348;2023-05-20T03:15:07;101993.59;;;14.40;60.17
17362;BME280;8798;51.938;4.348;2023-05-20T03:17:36;102006.97;;;14.41;60.16
17362;BME280;8798;51.938;4.348;2023-05-20T03:20:05;102035.38;;;14.46;60.36
17362;BME280;8798;51.938;4.348;2023-05-20T03:22:34;102029.13;;;14.45;60.31
17362;BME280;8798;51.938;4.348;2023-05-20T03:25:03;102042.66;;;14.45;60.44
17362;BME280;8798;51.938;4.348;2023-05-20T03:27:31;102054.19;;;14.47;60.40
17362;BME280;8798;51.938;4.348;2023-05-20T03:29:59;102063.97;;;14.48;60.44
17362;BME280;8798;51.938;4.348;2023-05-20T03:32:27;102061.56;;;14.45;60.41
17362;BME280;8798;51.938;4.348;2023-05-20T03:34:55;102059.88;;;14.44;60.35
17362;BME280;8798;51.938;4.348;2023-05-20T03:37:23;102045.94;;;14.39;60.48
17362;BME280;8798;51.938;4.348;2023-05-20T03:39:53;102044.25;;;14.38;60.75
17362;BME280;8798;51.938;4.348;2023-05-20T03:42:20;102040.09;;;14.34;60.67
17362;BME280;8798;51.938;4.348;2023-05-20T03:44:48;102020.06;;;14.27;60.73
17362;BME280;8798;51.938;4.348;2023-05-20T03:47:16;101997.19;;;14.21;60.60
17362;BME280;8798;51.938;4.348;2023-05-20T03:49:44;101990.53;;;14.15;60.80
17362;BME280;8798;51.938;4.348;2023-05-20T03:52:11;101985.44;;;14.12;60.96
17362;BME280;8798;51.938;4.348;2023-05-20T03:54:39;101981.84;;;14.12;60.62
17362;BME280;8798;51.938;4.348;2023-05-20T03:57:08;101982.03;;;14.10;61.26
17362;BME280;8798;51.938;4.348;2023-05-20T03:59:37;101967.38;;;14.03;61.09
17362;BME280;8798;51.938;4.348;2023-05-20T04:02:05;101970.09;;;14.03;61.05
17362;BME280;8798;51.938;4.348;2023-05-20T04:04:32;101991.41;;;14.06;61.28
17362;BME280;8798;51.938;4.348;2023-05-20T04:07:00;101997.66;;;14.07;61.07
17362;BME280;8798;51.938;4.348;2023-05-20T04:09:28;102012.03;;;14.07;60.98
17362;BME280;8798;51.938;4.348;2023-05-20T04:11:56;102017.44;;;14.07;61.19
17362;BME280;8798;51.938;4.348;2023-05-20T04:14:25;102028.25;;;14.07;61.30
17362;BME280;8798;51.938;4.348;2023-05-20T04:16:53;102021.13;;;14.06;61.38
17362;BME280;8798;51.938;4.348;2023-05-20T04:19:21;102026.69;;;14.05;61.50
17362;BME280;8798;51.938;4.348;2023-05-20T04:21:53;102041.06;;;14.05;61.53
17362;BME280;8798;51.938;4.348;2023-05-20T04:24:21;102057.81;;;14.09;61.57
17362;BME280;8798;51.938;4.348;2023-05-20T04:26:50;102074.59;;;14.12;61.62
17362;BME280;8798;51.938;4.348;2023-05-20T04:29:18;102091.53;;;14.14;61.56
17362;BME280;8798;51.938;4.348;2023-05-20T04:31:48;102089.09;;;14.11;61.76
17362;BME280;8798;51.938;4.348;2023-05-20T04:34:16;102093.66;;;14.11;61.79
17362;BME280;8798;51.938;4.348;2023-05-20T04:36:45;102103.44;;;14.12;61.91
17362;BME280;8798;51.938;4.348;2023-05-20T04:39:14;102110.44;;;14.14;61.83
17362;BME280;8798;51.938;4.348;2023-05-20T04:41:42;102131.91;;;14.16;61.81
17362;BME280;8798;51.938;4.348;2023-05-20T04:44:10;102132.75;;;14.16;62.05
17362;BME280;8798;51.938;4.348;2023-05-20T04:46:38;102140.84;;;14.16;62.01
17362;BME280;8798;51.938;4.348;2023-05-20T04:49:08;102140.19;;;14.14;61.86
17362;BME280;8798;51.938;4.348;2023-05-20T04:51:36;102135.75;;;14.13;62.12
17362;BME280;8798;51.938;4.348;2023-05-20T04:54:04;102151.84;;;14.15;62.24
17362;BME280;8798;51.938;4.348;2023-05-20T04:56:32;102144.00;;;14.12;62.03
17362;BME280;8798;51.938;4.348;2023-05-20T04:59:01;102144.00;;;14.12;62.27
17362;BME280;8798;51.938;4.348;2023-05-20T05:01:29;102152.97;;;14.12;62.07
17362;BME280;8798;51.938;4.348;2023-05-20T05:03:57;102176.00;;;14.16;62.05
17362;BME280;8798;51.938;4.348;2023-05-20T05:06:26;102199.91;;;14.21;62.07
17362;BME280;8798;51.938;4.348;2023-05-20T05:08:54;102209.56;;;14.24;62.39
17362;BME280;8798;51.938;4.348;2023-05-20T05:11:22;102214.97;;;14.24;62.42
17362;BME280;8798;51.938;4.348;2023-05-20T05:13:50;102211.56;;;14.22;62.16
17362;BME280;8798;51.938;4.348;2023-05-20T05:16:18;102209.00;;;14.20;62.57
17362;BME280;8798;51.938;4.348;2023-05-20T05:18:48;102209.00;;;14.20;62.52
17362;BME280;8798;51.938;4.348;2023-05-20T05:21:19;102222.38;;;14.22;62.81
17362;BME280;8798;51.938;4.348;2023-05-20T05:23:48;102239.16;;;14.25;62.67
17362;BME280;8798;51.938;4.348;2023-05-20T05:26:16;102264.94;;;14.29;62.79
17362;BME280;8798;51.938;4.348;2023-05-20T05:28:44;102300.34;;;14.36;62.69
17362;BME280;8798;51.938;4.348;2023-05-20T05:31:12;102314.47;;;14.39;63.02
17362;BME280;8798;51.938;4.348;2023-05-20T05:33:39;102338.09;;;14.47;62.94
17362;BME280;8798;51.938;4.348;2023-05-20T05:36:07;102387.66;;;14.57;62.95
17362;BME280;8798;51.938;4.348;2023-05-20T05:38:35;102422.13;;;14.65;62.84
17362;BME280;8798;51.938;4.348;2023-05-20T05:41:04;102429.09;;;14.68;63.01
17362;BME280;8798;51.938;4.348;2023-05-20T05:43:33;102444.19;;;14.70;62.93
17362;BME280;8798;51.938;4.348;2023-05-20T05:46:01;102435.34;;;14.68;63.21
17362;BME280;8798;51.938;4.348;2023-05-20T05:48:30;102429.94;;;14.68;63.05
17362;BME280;8798;51.938;4.348;2023-05-20T05:50:58;102447.75;;;14.71;63.15
17362;BME280;8798;51.938;4.348;2023-05-20T05:53:26;102477.69;;;14.79;63.15
17362;BME280;8798;51.938;4.348;2023-05-20T05:55:54;102506.88;;;14.85;63.31
17362;BME280;8798;51.938;4.348;2023-05-20T05:58:23;102526.25;;;14.90;63.40
17362;BME280;8798;51.938;4.348;2023-05-20T06:00:51;102541.25;;;14.94;63.39
17362;BME280;8798;51.938;4.348;2023-05-20T06:03:20;102561.47;;;15.00;63.42
17362;BME280;8798;51.938;4.348;2023-05-20T06:05:48;102581.72;;;15.05;63.53
17362;BME280;8798;51.938;4.348;2023-05-20T06:08:16;102588.84;;;15.07;63.58
17362;BME280;8798;51.938;4.348;2023-05-20T06:10:46;102591.41;;;15.08;63.59
17362;BME280;8798;51.938;4.348;2023-05-20T06:13:15;102607.22;;;15.13;63.90
17362;BME280;8798;51.938;4.348;2023-05-20T06:15:44;102614.22;;;15.15;63.65
17362;BME280;8798;51.938;4.348;2023-05-20T06:18:12;102615.09;;;15.16;63.72
17362;BME280;8798;51.938;4.348;2023-05-20T06:20:40;102616.69;;;15.18;63.76
17362;BME280;8798;51.938;4.348;2023-05-20T06:23:08;102633.63;;;15.20;63.65
17362;BME280;8798;51.938;4.348;2023-05-20T06:25:35;102639.63;;;15.24;63.45
17362;BME280;8798;51.938;4.348;2023-05-20T06:28:03;102647.47;;;15.27;63.79
17362;BME280;8798;51.938;4.348;2023-05-20T06:30:31;102651.03;;;15.27;63.85
17362;BME280;8798;51.938;4.348;2023-05-20T06:33:00;102649.03;;;15.30;63.99
17362;BME280;8798;51.938;4.348;2023-05-20T06:35:28;102650.78;;;15.31;63.83
17362;BME280;8798;51.938;4.348;2023-05-20T06:37:56;102669.44;;;15.34;63.73
17362;BME280;8798;51.938;4.348;2023-05-20T06:40:24;102668.31;;;15.36;63.94
17362;BME280;8798;51.938;4.348;2023-05-20T06:42:52;102680.56;;;15.40;63.60
17362;BME280;8798;51.938;4.348;2023-05-20T06:45:20;102692.13;;;15.42;63.66
17362;BME280;8798;51.938;4.348;2023-05-20T06:47:48;102694.56;;;15.45;63.79
17362;BME280;8798;51.938;4.348;2023-05-20T06:50:18;102713.97;;;15.51;63.69
17362;BME280;8798;51.938;4.348;2023-05-20T06:52:46;102741.50;;;15.56;63.92
17362;BME280;8798;51.938;4.348;2023-05-20T06:55:13;102750.94;;;15.61;63.86
17362;BME280;8798;51.938;4.348;2023-05-20T06:57:41;102764.91;;;15.66;63.61
17362;BME280;8798;51.938;4.348;2023-05-20T07:00:11;102771.81;;;15.71;63.65
17362;BME280;8798;51.938;4.348;2023-05-20T07:02:39;102787.66;;;15.75;63.64
17362;BME280;8798;51.938;4.348;2023-05-20T07:05:08;102804.38;;;15.80;63.58
17362;BME280;8798;51.938;4.348;2023-05-20T07:07:37;102809.63;;;15.82;63.55
17362;BME280;8798;51.938;4.348;2023-05-20T07:10:06;102806.63;;;15.85;63.63
17362;BME280;8798;51.938;4.348;2023-05-20T07:12:34;102819.78;;;15.89;63.46
17362;BME280;8798;51.938;4.348;2023-05-20T07:15:03;102834.66;;;15.95;63.47
17362;BME280;8798;51.938;4.348;2023-05-20T07:17:31;102855.78;;;16.01;63.40
17362;BME280;8798;51.938;4.348;2023-05-20T07:19:59;102872.50;;;16.06;63.36
17362;BME280;8798;51.938;4.348;2023-05-20T07:22:27;102890.06;;;16.12;63.66
17362;BME280;8798;51.938;4.348;2023-05-20T07:24:56;102907.66;;;16.18;63.53
17362;BME280;8798;51.938;4.348;2023-05-20T07:27:25;102910.94;;;16.21;63.30
17362;BME280;8798;51.938;4.348;2023-05-20T07:29:52;102923.97;;;16.27;63.44
17362;BME280;8798;51.938;4.348;2023-05-20T07:32:20;102939.66;;;16.33;63.44
17362;BME280;8798;51.938;4.348;2023-05-20T07:34:51;102951.97;;;16.38;63.28
17362;BME280;8798;51.938;4.348;2023-05-20T07:37:20;102950.69;;;16.42;63.27
17362;BME280;8798;51.938;4.348;2023-05-20T07:39:48;102971.13;;;16.46;63.16
17362;BME280;8798;51.938;4.348;2023-05-20T07:42:17;102988.56;;;16.53;63.11
17362;BME280;8798;51.938;4.348;2023-05-20T07:44:45;103014.88;;;16.62;63.11
17362;BME280;8798;51.938;4.348;2023-05-20T07:47:13;103038.63;;;16.70;63.09
17362;BME280;8798;51.938;4.348;2023-05-20T07:49:41;103056.06;;;16.77;63.27
17362;BME280;8798;51.938;4.348;2023-05-20T07:52:09;103058.41;;;16.82;62.74
17362;BME280;8798;51.938;4.348;2023-05-20T07:54:37;103074.13;;;16.88;62.90
17362;BME280;8798;51.938;4.348;2023-05-20T07:57:05;103093.31;;;16.96;62.57
17362;BME280;8798;51.938;4.348;2023-05-20T07:59:35;103110.03;;;17.01;62.49
17362;BME280;8798;51.938;4.348;2023-05-20T08:02:03;103122.06;;;17.08;62.61
17362;BME280;8798;51.938;4.348;2023-05-20T08:04:31;103139.69;;;17.14;62.67
17362;BME280;8798;51.938;4.348;2023-05-20T08:07:01;103154.56;;;17.19;62.48
17362;BME280;8798;51.938;4.348;2023-05-20T08:09:33;103168.31;;;17.28;62.37
17362;BME280;8798;51.938;4.348;2023-05-20T08:12:01;103180.50;;;17.33;62.36
17362;BME280;8798;51.938;4.348;2023-05-20T08:14:29;103194.38;;;17.40;62.31
17362;BME280;8798;51.938;4.348;2023-05-20T08:16:58;103210.16;;;17.46;62.22
17362;BME280;8798;51.938;4.348;2023-05-20T08:19:26;103227.75;;;17.52;62.20
17362;BME280;8798;51.938;4.348;2023-05-20T08:21:54;103238.78;;;17.60;62.09
17362;BME280;8798;51.938;4.348;2023-05-20T08:24:22;103249.97;;;17.67;61.94
17362;BME280;8798;51.938;4.348;2023-05-20T08:26:50;103259.41;;;17.72;61.64
17362;BME280;8798;51.938;4.348;2023-05-20T08:29:18;103288.53;;;17.81;61.65
17362;BME280;8798;51.938;4.348;2023-05-20T08:31:46;103299.56;;;17.90;61.68
17362;BME280;8798;51.938;4.348;2023-05-20T08:34:15;103317.78;;;17.99;61.69
17362;BME280;8798;51.938;4.348;2023-05-20T08:36:43;103342.41;;;18.07;61.38
17362;BME280;8798;51.938;4.348;2023-05-20T08:39:11;103355.47;;;18.13;61.08
17362;BME280;8798;51.938;4.348;2023-05-20T08:41:39;103362.94;;;18.21;61.27
17362;BME280;8798;51.938;4.348;2023-05-20T08:44:08;103376.13;;;18.25;61.10
17362;BME280;8798;51.938;4.348;2023-05-20T08:46:38;103375.69;;;18.30;60.72
17362;BME280;8798;51.938;4.348;2023-05-20T08:49:07;103369.97;;;18.33;60.65
17362;BME280;8798;51.938;4.348;2023-05-20T08:51:36;103374.16;;;18.37;60.65
17362;BME280;8798;51.938;4.348;2023-05-20T08:54:05;103348.75;;;18.37;60.12
17362;BME280;8798;51.938;4.348;2023-05-20T08:56:35;103339.44;;;18.39;60.54
17362;BME280;8798;51.938;4.348;2023-05-20T08:59:05;103343.50;;;18.45;60.08
17362;BME280;8798;51.938;4.348;2023-05-20T09:01:36;103353.06;;;18.49;60.25
17362;BME280;8798;51.938;4.348;2023-05-20T09:04:06;103351.78;;;18.53;59.91
17362;BME280;8798;51.938;4.348;2023-05-20T09:06:43;103341.47;;;18.57;59.79
17362;BME280;8798;51.938;4.348;2023-05-20T09:09:11;103357.25;;;18.63;59.63
17362;BME280;8798;51.938;4.348;2023-05-20T09:11:39;103374.44;;;18.73;59.70
17362;BME280;8798;51.938;4.348;2023-05-20T09:14:08;103388.41;;;18.80;59.21
17362;BME280;8798;51.938;4.348;2023-05-20T09:16:35;103390.81;;;18.83;59.30
17362;BME280;8798;51.938;4.348;2023-05-20T09:19:09;103384.94;;;18.87;59.03
17362;BME280;8798;51.938;4.348;2023-05-20T09:21:40;103381.78;;;18.92;58.80
17362;BME280;8798;51.938;4.348;2023-05-20T09:24:09;103395.84;;;18.97;58.72
17362;BME280;8798;51.938;4.348;2023-05-20T09:26:37;103388.22;;;19.01;58.37
17362;BME280;8798;51.938;4.348;2023-05-20T09:29:05;103394.25;;;19.04;58.29
17362;BME280;8798;51.938;4.348;2023-05-20T09:31:34;103388.38;;;19.09;58.25
17362;BME280;8798;51.938;4.348;2023-05-20T09:34:04;103379.91;;;19.12;58.18
17362;BME280;8798;51.938;4.348;2023-05-20T09:36:34;103400.81;;;19.21;58.08
17362;BME280;8798;51.938;4.348;2023-05-20T09:39:03;103423.50;;;19.31;57.96
17362;BME280;8798;51.938;4.348;2023-05-20T09:41:37;103442.69;;;19.40;57.64
17362;BME280;8798;51.938;4.348;2023-05-20T09:44:06;103441.41;;;19.44;57.52
17362;BME280;8798;51.938;4.348;2023-05-20T09:46:35;103431.19;;;19.46;57.36
17362;BME280;8798;51.938;4.348;2023-05-20T09:49:03;103429.91;;;19.50;57.25
17362;BME280;8798;51.938;4.348;2023-05-20T09:51:34;103415.97;;;19.53;56.87
17362;BME280;8798;51.938;4.348;2023-05-20T09:54:02;103416.38;;;19.58;56.82
17362;BME280;8798;51.938;4.348;2023-05-20T09:56:35;103428.41;;;19.65;56.73
17362;BME280;8798;51.938;4.348;2023-05-20T09:59:04;103459.28;;;19.75;56.46
17362;BME280;8798;51.938;4.348;2023-05-20T10:01:32;103474.78;;;19.85;56.29
17362;BME280;8798;51.938;4.348;2023-05-20T10:04:00;103448.50;;;19.84;56.10
17362;BME280;8798;51.938;4.348;2023-05-20T10:06:53;103415.06;;;19.82;55.95
17362;BME280;8798;51.938;4.348;2023-05-20T10:09:40;103412.88;;;19.85;55.97
17362;BME280;8798;51.938;4.348;2023-05-20T10:12:18;103417.75;;;19.91;55.71
17362;BME280;8798;51.938;4.348;2023-05-20T10:14:56;103399.50;;;19.92;55.88
17362;BME280;8798;51.938;4.348;2023-05-20T10:17:33;103377.66;;;19.92;55.42
17362;BME280;8798;51.938;4.348;2023-05-20T10:20:05;103381.81;;;19.96;55.23
17362;BME280;8798;51.938;4.348;2023-05-20T10:22:34;103407.91;;;20.08;54.84
17362;BME280;8798;51.938;4.348;2023-05-20T10:25:04;103464.44;;;20.26;54.85
17362;BME280;8798;51.938;4.348;2023-05-20T10:27:44;103530.56;;;20.47;54.56
17362;BME280;8798;51.938;4.348;2023-05-20T10:30:16;103557.84;;;20.57;54.39
17362;BME280;8798;51.938;4.348;2023-05-20T10:32:52;103556.25;;;20.64;54.30
17362;BME280;8798;51.938;4.348;2023-05-20T10:35:23;103566.41;;;20.72;53.87
17362;BME280;8798;51.938;4.348;2023-05-20T10:37:54;103597.84;;;20.86;53.75
17362;BME280;8798;51.938;4.348;2023-05-20T10:40:32;103647.09;;;21.03;53.76
17362;BME280;8798;51.938;4.348;2023-05-20T10:43:09;103700.97;;;21.21;53.48
17362;BME280;8798;51.938;4.348;2023-05-20T10:45:47;103725.91;;;21.36;53.14
17362;BME280;8798;51.938;4.348;2023-05-20T10:48:20;103741.59;;;21.43;53.04
17362;BME280;8798;51.938;4.348;2023-05-20T10:50:52;103691.81;;;21.40;53.03
17362;BME280;8798;51.938;4.348;2023-05-20T10:53:21;103621.75;;;21.29;52.28
17362;BME280;8798;51.938;4.348;2023-05-20T10:56:00;103598.00;;;21.30;52.47
17362;BME280;8798;51.938;4.348;2023-05-20T10:58:36;103621.69;;;21.39;51.86
17362;BME280;8798;51.938;4.348;2023-05-20T11:01:04;103598.81;;;21.40;52.03
17362;BME280;8798;51.938;4.348;2023-05-20T11:03:33;103564.13;;;21.40;51.55
17362;BME280;8798;51.938;4.348;2023-05-20T11:06:10;103507.59;;;21.31;51.81
17362;BME280;8798;51.938;4.348;2023-05-20T11:08:38;103457.44;;;21.22;51.79
17362;BME280;8798;51.938;4.348;2023-05-20T11:11:06;103423.06;;;21.20;51.64
17362;BME280;8798;51.938;4.348;2023-05-20T11:13:35;103423.59;;;21.23;51.30
17362;BME280;8798;51.938;4.348;2023-05-20T11:16:04;103427.41;;;21.31;51.12
17362;BME280;8798;51.938;4.348;2023-05-20T11:18:32;103419.91;;;21.33;51.35
17362;BME280;8798;51.938;4.348;2023-05-20T11:21:01;103377.69;;;21.27;51.05
17362;BME280;8798;51.938;4.348;2023-05-20T11:23:29;103359.53;;;21.26;50.49
17362;BME280;8798;51.938;4.348;2023-05-20T11:25:57;103404.28;;;21.43;50.59
17362;BME280;8798;51.938;4.348;2023-05-20T11:28:25;103423.34;;;21.53;50.43
17362;BME280;8798;51.938;4.348;2023-05-20T11:30:54;103405.03;;;21.53;50.59
17362;BME280;8798;51.938;4.348;2023-05-20T11:33:24;103385.03;;;21.53;50.58
17362;BME280;8798;51.938;4.348;2023-05-20T11:35:53;103300.09;;;21.36;50.22
17362;BME280;8798;51.938;4.348;2023-05-20T11:38:20;103251.72;;;21.29;50.18
17362;BME280;8798;51.938;4.348;2023-05-20T11:40:51;103222.81;;;21.26;49.94
17362;BME280;8798;51.938;4.348;2023-05-20T11:43:22;103219.94;;;21.27;49.86
17362;BME280;8798;51.938;4.348;2023-05-20T11:45:54;103248.56;;;21.41;50.16
17362;BME280;8798;51.938;4.348;2023-05-20T11:48:22;103258.16;;;21.45;49.77
17362;BME280;8798;51.938;4.348;2023-05-20T11:50:52;103283.50;;;21.56;49.78
17362;BME280;8798;51.938;4.348;2023-05-20T11:53:21;103299.06;;;21.63;50.04
17362;BME280;8798;51.938;4.348;2023-05-20T11:55:51;103342.25;;;21.78;49.60
17362;BME280;8798;51.938;4.348;2023-05-20T11:58:20;103357.69;;;21.87;49.76
17362;BME280;8798;51.938;4.348;2023-05-20T12:00:48;103349.13;;;21.90;49.66
17362;BME280;8798;51.938;4.348;2023-05-20T12:03:23;103381.69;;;22.01;49.52
17362;BME280;8798;51.938;4.348;2023-05-20T12:05:52;103374.69;;;22.07;48.98
17362;BME280;8798;51.938;4.348;2023-05-20T12:08:20;103383.13;;;22.14;49.26
17362;BME280;8798;51.938;4.348;2023-05-20T12:10:48;103379.88;;;22.18;49.15
17362;BME280;8798;51.938;4.348;2023-05-20T12:13:16;103333.28;;;22.10;49.03
17362;BME280;8798;51.938;4.348;2023-05-20T12:15:45;103280.22;;;22.03;48.64
17362;BME280;8798;51.938;4.348;2023-05-20T12:18:12;103296.69;;;22.11;48.80
17362;BME280;8798;51.938;4.348;2023-05-20T12:20:42;103370.19;;;22.32;48.44
17362;BME280;8798;51.938;4.348;2023-05-20T12:23:09;103323.41;;;22.25;48.57
17362;BME280;8798;51.938;4.348;2023-05-20T12:25:37;103294.31;;;22.24;48.31
17362;BME280;8798;51.938;4.348;2023-05-20T12:28:05;103311.66;;;22.33;47.85
17362;BME280;8798;51.938;4.348;2023-05-20T12:30:33;103332.72;;;22.41;48.27
17362;BME280;8798;51.938;4.348;2023-05-20T12:33:01;103371.06;;;22.57;47.74
17362;BME280;8798;51.938;4.348;2023-05-20T12:35:35;103413.41;;;22.71;48.18
17362;BME280;8798;51.938;4.348;2023-05-20T12:38:05;103428.84;;;22.80;47.72
17362;BME280;8798;51.938;4.348;2023-05-20T12:40:34;103446.16;;;22.89;47.25
17362;BME280;8798;51.938;4.348;2023-05-20T12:43:04;103463.50;;;22.98;47.79
17362;BME280;8798;51.938;4.348;2023-05-20T12:45:32;103497.63;;;23.11;47.75
17362;BME280;8798;51.938;4.348;2023-05-20T12:48:00;103538.09;;;23.26;46.95
17362;BME280;8798;51.938;4.348;2023-05-20T12:50:28;103583.72;;;23.43;47.22
17362;BME280;8798;51.938;4.348;2023-05-20T12:52:55;103610.66;;;23.56;47.00
17362;BME280;8798;51.938;4.348;2023-05-20T12:55:24;103626.13;;;23.65;46.57
17362;BME280;8798;51.938;4.348;2023-05-20T12:57:53;103579.13;;;23.60;47.15
17362;BME280;8798;51.938;4.348;2023-05-20T13:00:21;103579.47;;;23.65;46.81
17362;BME280;8798;51.938;4.348;2023-05-20T13:02:49;103626.84;;;23.83;46.58
17362;BME280;8798;51.938;4.348;2023-05-20T13:05:18;103667.19;;;23.99;46.51
17362;BME280;8798;51.938;4.348;2023-05-20T13:07:45;103702.22;;;24.14;46.27
17362;BME280;8798;51.938;4.348;2023-05-20T13:10:14;103731.91;;;24.27;46.27